Time;durP1;ratioP1;P1;durP2;ratioP2;P2;SDS_P1;SDS_P2;PMS_P1;PMS_P2;Temp;Humidity;BMP_temperature;BMP_pressure;BME280_temperature;BME280_humidity;BME280_pressure;Samples;Min_cycle;Max_cycle;Signal;HPM_P1;HPM_P2
2023/10/16 00:02:24;;;;;;;;;;;7.60;92.00;;;;;;5093592;28;19919;-47
2023/10/16 00:04:53;;;;;;;;;;;7.60;92.00;;;;;;5092754;28;19923;-47
2023/10/16 00:07:21;;;;;;;;;;;7.70;92.10;;;;;;5098760;28;20306;-47
2023/10/16 00:09:49;;;;;;;;;;;7.70;92.10;;;;;;5112720;28;19962;-49
2023/10/16 00:12:20;;;;;;;;;;;7.80;92.10;;;;;;5102388;28;19911;-47
2023/10/16 00:14:48;;;;;;;;;;;7.80;92.00;;;;;;5090992;28;19912;-47
2023/10/16 00:17:21;;;;;;;;;;;7.80;92.10;;;;;;5112120;28;19907;-49
2023/10/16 00:19:54;;;;;;;;;;;7.80;92.00;;;;;;5110753;28;19996;-48
2023/10/16 00:22:21;;;;;;;;;;;7.80;92.20;;;;;;5099562;28;20340;-47
2023/10/16 00:24:46;;;;;;;;;;;7.90;92.10;;;;;;5112175;28;20232;-47
2023/10/16 00:27:14;;;;;;;;;;;7.90;92.00;;;;;;5091311;28;19908;-47
2023/10/16 00:29:43;;;;;;;;;;;7.90;92.10;;;;;;5075360;28;20314;-47
2023/10/16 00:32:12;;;;;;;;;;;7.90;92.10;;;;;;5110475;28;19911;-48
2023/10/16 00:34:39;;;;;;;;;;;7.90;92.10;;;;;;5093761;28;19923;-47
2023/10/16 00:37:07;;;;;;;;;;;7.90;92.10;;;;;;5095287;28;19911;-48
2023/10/16 00:39:36;;;;;;;;;;;8.00;92.20;;;;;;5112509;28;19908;-47
2023/10/16 00:42:08;;;;;;;;;;;8.00;92.10;;;;;;5111663;28;20237;-47
2023/10/16 00:44:34;;;;;;;;;;;7.90;92.20;;;;;;5112709;28;19908;-51
2023/10/16 00:47:10;;;;;;;;;;;7.90;92.20;;;;;;5100550;28;19919;-53
2023/10/16 00:49:38;;;;;;;;;;;7.90;92.20;;;;;;5111057;28;19994;-49
2023/10/16 00:52:05;;;;;;;;;;;8.00;92.50;;;;;;5092601;28;20344;-50
2023/10/16 00:54:33;;;;;;;;;;;8.10;92.60;;;;;;5097260;28;19908;-50
2023/10/16 00:57:00;;;;;;;;;;;8.10;92.60;;;;;;5090720;28;20391;-48
2023/10/16 00:59:26;;;;;;;;;;;8.20;92.50;;;;;;5088085;28;19918;-48
2023/10/16 01:02:13;;;;;;;;;;;8.20;92.60;;;;;;5094890;28;20333;-48
2023/10/16 01:04:40;;;;;;;;;;;8.20;92.50;;;;;;5078238;28;19927;-49
2023/10/16 01:07:08;;;;;;;;;;;8.20;92.50;;;;;;5079237;28;19969;-47
2023/10/16 01:09:36;;;;;;;;;;;8.20;92.40;;;;;;5112607;28;19919;-51
2023/10/16 01:12:06;;;;;;;;;;;8.20;92.30;;;;;;5107378;28;19996;-47
2023/10/16 01:14:40;;;;;;;;;;;8.10;92.30;;;;;;5094531;28;19955;-47
2023/10/16 01:17:10;;;;;;;;;;;8.00;92.20;;;;;;5106904;28;19907;-48
2023/10/16 01:19:37;;;;;;;;;;;8.00;92.10;;;;;;5112590;28;20008;-47
2023/10/16 01:22:03;;;;;;;;;;;7.90;92.20;;;;;;5103754;28;19907;-47
2023/10/16 01:24:30;;;;;;;;;;;7.90;92.30;;;;;;5093116;28;19934;-48
2023/10/16 01:27:12;;;;;;;;;;;7.90;92.40;;;;;;5111017;28;19911;-47
2023/10/16 01:29:39;;;;;;;;;;;7.90;92.40;;;;;;5116146;28;19912;-50
2023/10/16 01:32:04;;;;;;;;;;;7.90;92.40;;;;;;5088820;28;19967;-49
2023/10/16 01:34:55;;;;;;;;;;;7.90;92.50;;;;;;5116209;28;19930;-51
2023/10/16 01:37:41;;;;;;;;;;;7.90;92.60;;;;;;5115454;28;19962;-53
2023/10/16 01:40:26;;;;;;;;;;;7.90;92.60;;;;;;5109045;28;19930;-51
2023/10/16 01:42:56;;;;;;;;;;;7.90;92.70;;;;;;5116009;28;20333;-50
2023/10/16 01:45:27;;;;;;;;;;;7.90;92.70;;;;;;5098802;28;19922;-49
2023/10/16 01:47:55;;;;;;;;;;;8.00;92.70;;;;;;5116284;28;19946;-48
2023/10/16 01:50:26;;;;;;;;;;;7.90;92.60;;;;;;5104183;28;20355;-51
2023/10/16 01:52:54;;;;;;;;;;;7.90;92.70;;;;;;5107262;28;19923;-53
2023/10/16 01:55:21;;;;;;;;;;;7.90;92.80;;;;;;5114191;28;19915;-49
2023/10/16 01:58:06;;;;;;;;;;;7.90;92.90;;;;;;5099032;28;19944;-49
2023/10/16 02:00:34;;;;;;;;;;;8.00;92.90;;;;;;5099543;28;19996;-50
2023/10/16 02:03:01;;;;;;;;;;;8.00;92.90;;;;;;5115703;28;19903;-54
2023/10/16 02:05:28;;;;;;;;;;;8.00;92.90;;;;;;5115445;28;19941;-48
2023/10/16 02:07:56;;;;;;;;;;;8.00;92.90;;;;;;5095616;28;19907;-50
2023/10/16 02:10:23;;;;;;;;;;;8.00;92.90;;;;;;5102436;28;19912;-48
2023/10/16 02:12:50;;;;;;;;;;;8.00;93.20;;;;;;5115035;28;19934;-52
2023/10/16 02:15:21;;;;;;;;;;;8.00;93.20;;;;;;5098350;28;20389;-51
2023/10/16 02:17:49;;;;;;;;;;;8.00;93.20;;;;;;5115579;28;20264;-52
2023/10/16 02:20:17;;;;;;;;;;;8.10;93.30;;;;;;5112813;28;19911;-50
2023/10/16 02:22:47;;;;;;;;;;;8.10;93.30;;;;;;5115621;28;19915;-51
2023/10/16 02:25:17;;;;;;;;;;;8.10;93.40;;;;;;5115016;28;19912;-51
2023/10/16 02:27:54;;;;;;;;;;;8.10;93.50;;;;;;5108540;28;19912;-50
2023/10/16 02:33:22;;;;;;;;;;;8.10;93.40;;;;;;5102957;28;20027;-52
2023/10/16 02:35:48;;;;;;;;;;;8.10;93.50;;;;;;5102566;28;20382;-48
2023/10/16 02:38:23;;;;;;;;;;;8.10;93.50;;;;;;5114683;28;20235;-47
2023/10/16 02:40:50;;;;;;;;;;;8.10;93.50;;;;;;5098343;28;19923;-52
2023/10/16 02:43:22;;;;;;;;;;;8.10;93.50;;;;;;5095267;28;19919;-49
2023/10/16 02:46:01;;;;;;;;;;;8.20;93.60;;;;;;5100854;28;20415;-49
2023/10/16 02:48:33;;;;;;;;;;;8.20;93.50;;;;;;5096657;28;19926;-51
2023/10/16 02:50:59;;;;;;;;;;;8.20;93.50;;;;;;5112271;28;19915;-50
2023/10/16 02:53:25;;;;;;;;;;;8.20;93.60;;;;;;5094663;28;20003;-48
2023/10/16 02:55:53;;;;;;;;;;;8.20;93.60;;;;;;5112149;28;19915;-49
2023/10/16 02:58:22;;;;;;;;;;;8.20;93.60;;;;;;5102928;28;20333;-50
2023/10/16 03:00:49;;;;;;;;;;;8.20;93.70;;;;;;5100804;28;19907;-48
2023/10/16 03:03:17;;;;;;;;;;;8.20;93.70;;;;;;5114688;28;19911;-51
2023/10/16 03:05:49;;;;;;;;;;;8.20;93.70;;;;;;5114645;28;19912;-49
2023/10/16 03:08:19;;;;;;;;;;;8.20;93.70;;;;;;5082374;28;19923;-49
2023/10/16 03:10:51;;;;;;;;;;;8.20;93.80;;;;;;5109458;28;20362;-49
2023/10/16 03:13:19;;;;;;;;;;;8.20;93.70;;;;;;5114622;28;20244;-49
2023/10/16 03:15:46;;;;;;;;;;;8.30;93.70;;;;;;5111731;28;19907;-48
2023/10/16 03:18:22;;;;;;;;;;;8.20;93.70;;;;;;5093275;28;20304;-50
2023/10/16 03:21:00;;;;;;;;;;;8.10;93.70;;;;;;5079794;28;19932;-48
2023/10/16 03:23:28;;;;;;;;;;;8.10;93.70;;;;;;5084748;28;20007;-47
2023/10/16 03:25:59;;;;;;;;;;;8.10;93.60;;;;;;5108672;28;19912;-50
2023/10/16 03:28:26;;;;;;;;;;;8.10;93.70;;;;;;5110633;28;19908;-48
2023/10/16 03:30:58;;;;;;;;;;;8.10;93.70;;;;;;5101308;28;19907;-51
2023/10/16 03:33:25;;;;;;;;;;;8.10;93.80;;;;;;5096130;28;19924;-49
2023/10/16 03:35:50;;;;;;;;;;;8.10;93.80;;;;;;5105805;28;19908;-48
2023/10/16 03:38:26;;;;;;;;;;;8.20;93.90;;;;;;5093688;28;20348;-48
2023/10/16 03:40:58;;;;;;;;;;;8.10;93.80;;;;;;5105298;28;19918;-48
2023/10/16 03:43:28;;;;;;;;;;;8.00;93.70;;;;;;5096580;28;20333;-48
2023/10/16 03:45:55;;;;;;;;;;;8.10;93.80;;;;;;5100392;28;19912;-49
2023/10/16 03:48:22;;;;;;;;;;;8.00;93.80;;;;;;5113810;28;19911;-48
2023/10/16 03:50:48;;;;;;;;;;;8.10;93.90;;;;;;5113149;28;19908;-48
2023/10/16 03:53:14;;;;;;;;;;;8.00;93.90;;;;;;5113993;28;19969;-50
2023/10/16 03:55:41;;;;;;;;;;;8.00;94.00;;;;;;5097132;28;19908;-50
2023/10/16 03:58:06;;;;;;;;;;;8.10;94.10;;;;;;5093585;28;20367;-48
2023/10/16 04:03:22;;;;;;;;;;;8.10;94.20;;;;;;5111798;28;19972;-51
2023/10/16 04:05:48;;;;;;;;;;;8.10;94.10;;;;;;5076065;28;19918;-48
2023/10/16 04:08:15;;;;;;;;;;;8.00;94.00;;;;;;5093535;28;20504;-51
2023/10/16 04:10:46;;;;;;;;;;;8.00;94.10;;;;;;5091957;28;20329;-50
2023/10/16 04:13:14;;;;;;;;;;;8.00;94.10;;;;;;5084957;28;19912;-48
2023/10/16 04:18:09;;;;;;;;;;;8.00;94.00;;;;;;5095292;28;19990;-48
2023/10/16 04:20:47;;;;;;;;;;;7.90;93.90;;;;;;5098795;28;19934;-53
2023/10/16 04:23:37;;;;;;;;;;;7.90;94.10;;;;;;5098864;28;19915;-50
2023/10/16 04:31:56;;;;;;;;;;;8.00;94.40;;;;;;5084468;28;19930;-56
2023/10/16 04:48:14;;;;;;;;;;;8.30;94.60;;;;;;5094851;28;19927;-48
2023/10/16 04:50:40;;;;;;;;;;;8.20;94.60;;;;;;5087123;28;19967;-49
2023/10/16 04:53:12;;;;;;;;;;;8.20;94.50;;;;;;5091524;28;19930;-49
2023/10/16 04:56:16;;;;;;;;;;;8.20;94.50;;;;;;5112257;28;19908;-50
2023/10/16 04:58:47;;;;;;;;;;;8.20;94.40;;;;;;5110011;28;20245;-49
2023/10/16 05:20:34;;;;;;;;;;;8.40;94.60;;;;;;5114251;28;20037;-47
2023/10/16 06:15:08;;;;;;;;;;;8.20;94.60;;;;;;5104427;28;19919;-48
2023/10/16 06:17:37;;;;;;;;;;;8.20;94.60;;;;;;5114213;28;20312;-46
2023/10/16 06:20:04;;;;;;;;;;;8.20;94.50;;;;;;5105722;28;19911;-46
2023/10/16 06:22:30;;;;;;;;;;;8.20;94.60;;;;;;5094512;28;19922;-48
2023/10/16 06:24:57;;;;;;;;;;;8.30;94.50;;;;;;5103664;28;20171;-49
2023/10/16 06:27:24;;;;;;;;;;;8.30;94.50;;;;;;5108856;28;19907;-47
2023/10/16 06:29:49;;;;;;;;;;;8.30;94.40;;;;;;5114390;28;19904;-51
2023/10/16 06:32:18;;;;;;;;;;;8.30;94.40;;;;;;5108616;28;20002;-54
2023/10/16 06:34:46;;;;;;;;;;;8.40;94.40;;;;;;5110258;28;19912;-51
2023/10/16 06:37:16;;;;;;;;;;;8.30;94.20;;;;;;5113948;28;19908;-53
2023/10/16 06:39:45;;;;;;;;;;;8.30;94.40;;;;;;5097220;28;19912;-51
2023/10/16 06:42:19;;;;;;;;;;;8.40;94.50;;;;;;5111444;28;19908;-49
2023/10/16 06:44:50;;;;;;;;;;;8.40;94.60;;;;;;5114011;28;19911;-54
2023/10/16 06:47:23;;;;;;;;;;;8.40;94.60;;;;;;5091392;28;19994;-49
2023/10/16 06:49:51;;;;;;;;;;;8.50;94.60;;;;;;5114556;28;19947;-49
2023/10/16 06:52:19;;;;;;;;;;;8.50;94.60;;;;;;5112941;28;19955;-49
2023/10/16 06:54:45;;;;;;;;;;;8.60;94.60;;;;;;5105276;28;20323;-47
2023/10/16 06:57:12;;;;;;;;;;;8.60;94.60;;;;;;5110986;28;19955;-48
2023/10/16 06:59:41;;;;;;;;;;;8.70;94.50;;;;;;5114064;28;19977;-47
2023/10/16 07:02:20;;;;;;;;;;;8.70;94.40;;;;;;5093447;28;19930;-48
2023/10/16 07:04:47;;;;;;;;;;;8.70;94.30;;;;;;5097509;28;19915;-49
2023/10/16 07:07:15;;;;;;;;;;;8.60;94.20;;;;;;5109832;28;19914;-48
2023/10/16 07:09:47;;;;;;;;;;;8.60;94.20;;;;;;5110515;28;20003;-49
2023/10/16 07:12:22;;;;;;;;;;;8.60;94.20;;;;;;5105569;28;19939;-46
2023/10/16 07:15:01;;;;;;;;;;;8.70;94.30;;;;;;5113162;28;20474;-46
2023/10/16 07:17:30;;;;;;;;;;;8.90;94.40;;;;;;5094081;28;19916;-46
2023/10/16 07:19:59;;;;;;;;;;;9.00;94.20;;;;;;5112072;28;19908;-47
2023/10/16 07:22:31;;;;;;;;;;;9.20;94.20;;;;;;5092877;28;20363;-47
2023/10/16 07:24:57;;;;;;;;;;;9.30;94.20;;;;;;5112863;28;19912;-46
2023/10/16 07:27:23;;;;;;;;;;;9.40;93.90;;;;;;5110989;28;20004;-47
2023/10/16 07:29:51;;;;;;;;;;;9.30;93.40;;;;;;5108219;27;19979;-46
2023/10/16 07:32:17;;;;;;;;;;;9.30;92.70;;;;;;5107678;28;20503;-48
2023/10/16 07:34:44;;;;;;;;;;;9.40;91.60;;;;;;5113920;27;20248;-46
2023/10/16 07:37:10;;;;;;;;;;;9.40;91.10;;;;;;5111097;28;19918;-46
2023/10/16 07:39:40;;;;;;;;;;;9.50;91.30;;;;;;5113208;28;19907;-46
2023/10/16 07:42:10;;;;;;;;;;;9.50;91.10;;;;;;5109827;28;19903;-46
2023/10/16 07:44:41;;;;;;;;;;;9.50;91.20;;;;;;5112875;28;20479;-47
2023/10/16 07:47:09;;;;;;;;;;;9.50;91.20;;;;;;5111616;28;20113;-46
2023/10/16 07:49:37;;;;;;;;;;;9.60;91.50;;;;;;5111300;28;19935;-50
2023/10/16 07:52:05;;;;;;;;;;;9.70;91.40;;;;;;5112628;28;20329;-47
2023/10/16 07:54:36;;;;;;;;;;;9.80;91.60;;;;;;5112353;28;20387;-47
2023/10/16 07:57:03;;;;;;;;;;;9.80;91.30;;;;;;5110753;28;19918;-47
2023/10/16 07:59:35;;;;;;;;;;;9.90;91.00;;;;;;5112742;28;19946;-47
2023/10/16 08:02:08;;;;;;;;;;;9.90;90.80;;;;;;5101828;28;19912;-47
2023/10/16 08:04:39;;;;;;;;;;;9.90;90.70;;;;;;5093402;28;19945;-48
2023/10/16 08:07:08;;;;;;;;;;;9.90;90.60;;;;;;5111861;28;19912;-49
2023/10/16 08:12:12;;;;;;;;;;;10.10;90.40;;;;;;5102854;28;19907;-53
2023/10/16 08:14:41;;;;;;;;;;;10.20;90.30;;;;;;5111036;28;20252;-48
2023/10/16 08:17:17;;;;;;;;;;;10.30;89.80;;;;;;5101940;28;20003;-49
2023/10/16 08:19:45;;;;;;;;;;;10.30;89.20;;;;;;5096423;28;20361;-47
2023/10/16 08:22:13;;;;;;;;;;;10.20;89.00;;;;;;5109346;28;19911;-47
2023/10/16 08:25:00;;;;;;;;;;;10.20;89.40;;;;;;5111891;28;19912;-49
2023/10/16 08:30:33;;;;;;;;;;;10.10;89.00;;;;;;5085204;28;19911;-50
2023/10/16 08:33:19;;;;;;;;;;;10.10;89.20;;;;;;5110071;28;19997;-50
2023/10/16 08:35:46;;;;;;;;;;;10.20;89.20;;;;;;5111638;28;20041;-48
2023/10/16 08:38:20;;;;;;;;;;;10.40;88.60;;;;;;5114326;28;19908;-49
2023/10/16 08:41:07;;;;;;;;;;;10.40;88.60;;;;;;5094964;28;20382;-48
2023/10/16 08:43:53;;;;;;;;;;;10.40;88.20;;;;;;5102117;27;19908;-48
2023/10/16 08:46:34;;;;;;;;;;;10.60;87.80;;;;;;5137158;27;19907;-49
2023/10/16 08:49:03;;;;;;;;;;;10.80;87.60;;;;;;5123462;27;19908;-50
2023/10/16 08:51:30;;;;;;;;;;;10.90;87.10;;;;;;5109633;28;19916;-48
2023/10/16 08:54:02;;;;;;;;;;;10.80;86.60;;;;;;5116169;28;19915;-46
2023/10/16 08:56:32;;;;;;;;;;;10.70;87.00;;;;;;5086975;28;20372;-48
2023/10/16 08:59:01;;;;;;;;;;;10.50;86.90;;;;;;5110651;28;19908;-47
2023/10/16 09:01:32;;;;;;;;;;;10.30;87.60;;;;;;5079338;28;19922;-46
2023/10/16 09:04:06;;;;;;;;;;;10.20;87.90;;;;;;5097040;28;19908;-46
2023/10/16 09:06:34;;;;;;;;;;;10.20;88.20;;;;;;5111371;28;19912;-46
2023/10/16 09:09:00;;;;;;;;;;;10.40;88.50;;;;;;5095854;28;19904;-47
2023/10/16 09:11:29;;;;;;;;;;;10.60;88.70;;;;;;5115364;28;19927;-46
2023/10/16 09:13:59;;;;;;;;;;;10.90;89.10;;;;;;5096373;28;19920;-47
2023/10/16 09:16:31;;;;;;;;;;;11.00;87.50;;;;;;5090451;28;19911;-48
2023/10/16 09:18:58;;;;;;;;;;;11.30;88.30;;;;;;5113501;28;20027;-48
2023/10/16 09:21:38;;;;;;;;;;;11.70;88.00;;;;;;5110302;28;20011;-48
2023/10/16 09:24:05;;;;;;;;;;;11.90;86.50;;;;;;5114281;28;19907;-48
2023/10/16 09:26:38;;;;;;;;;;;12.00;85.00;;;;;;5105731;28;19904;-52
2023/10/16 09:29:14;;;;;;;;;;;11.90;84.70;;;;;;5098265;28;19971;-48
2023/10/16 09:31:42;;;;;;;;;;;11.70;83.60;;;;;;5112502;28;19916;-52
2023/10/16 09:34:08;;;;;;;;;;;11.50;83.50;;;;;;5097295;28;19959;-51
2023/10/16 09:36:36;;;;;;;;;;;11.50;84.20;;;;;;5111869;28;19992;-51
2023/10/16 09:39:16;;;;;;;;;;;11.80;84.30;;;;;;5113334;28;19908;-51
2023/10/16 09:41:43;;;;;;;;;;;11.90;84.10;;;;;;5110317;28;19908;-53
2023/10/16 09:44:09;;;;;;;;;;;12.00;82.50;;;;;;5097474;28;19915;-53
2023/10/16 09:49:13;;;;;;;;;;;12.00;80.80;;;;;;5134689;27;20333;-52
2023/10/16 09:51:40;;;;;;;;;;;12.10;81.20;;;;;;5105184;27;20064;-54
2023/10/16 09:54:08;;;;;;;;;;;12.10;80.50;;;;;;5114956;28;20358;-56
2023/10/16 09:56:36;;;;;;;;;;;12.00;79.00;;;;;;5114240;28;20352;-53
2023/10/16 09:59:26;;;;;;;;;;;11.90;79.30;;;;;;5080813;28;20005;-53
2023/10/16 10:01:55;;;;;;;;;;;11.90;79.10;;;;;;5094467;28;19951;-52
2023/10/16 10:04:32;;;;;;;;;;;11.60;80.10;;;;;;5098537;28;20429;-50
2023/10/16 10:07:00;;;;;;;;;;;11.40;82.20;;;;;;5102392;28;19907;-48
2023/10/16 10:09:41;;;;;;;;;;;11.00;83.50;;;;;;5114993;28;19904;-52
2023/10/16 10:12:37;;;;;;;;;;;10.90;83.40;;;;;;5114374;28;20010;-50
2023/10/16 10:15:12;;;;;;;;;;;10.80;85.00;;;;;;5095716;28;19911;-50
2023/10/16 10:17:42;;;;;;;;;;;10.70;85.10;;;;;;5109176;28;19904;-48
2023/10/16 10:20:17;;;;;;;;;;;10.70;85.30;;;;;;5093895;28;20327;-49
2023/10/16 10:22:48;;;;;;;;;;;10.70;85.10;;;;;;5094217;28;19908;-49
2023/10/16 10:25:22;;;;;;;;;;;10.90;85.50;;;;;;5090575;28;19922;-46
2023/10/16 10:27:49;;;;;;;;;;;11.00;85.90;;;;;;5100930;28;19908;-46
2023/10/16 10:30:20;;;;;;;;;;;11.30;86.00;;;;;;5113825;28;19995;-46
2023/10/16 10:32:53;;;;;;;;;;;11.50;85.80;;;;;;5095221;28;19933;-47
2023/10/16 10:35:29;;;;;;;;;;;11.60;85.30;;;;;;5111443;28;19973;-48
2023/10/16 10:38:07;;;;;;;;;;;11.50;83.50;;;;;;5114611;27;19911;-48
2023/10/16 10:40:35;;;;;;;;;;;11.50;84.10;;;;;;5110821;28;19908;-53
2023/10/16 10:43:05;;;;;;;;;;;11.40;84.40;;;;;;5113804;28;19908;-50
2023/10/16 10:45:39;;;;;;;;;;;11.40;83.70;;;;;;5113731;28;19908;-48
2023/10/16 10:48:10;;;;;;;;;;;11.40;84.80;;;;;;5079867;28;19966;-47
2023/10/16 10:50:41;;;;;;;;;;;11.40;84.70;;;;;;5096732;28;19911;-46
2023/10/16 10:53:13;;;;;;;;;;;11.40;85.10;;;;;;5094170;28;20016;-48
2023/10/16 10:55:54;;;;;;;;;;;11.60;85.60;;;;;;5111931;28;20325;-46
2023/10/16 10:58:20;;;;;;;;;;;11.70;84.60;;;;;;5095162;28;19912;-47
2023/10/16 11:00:50;;;;;;;;;;;11.80;84.90;;;;;;5089812;28;19994;-47
2023/10/16 11:03:53;;;;;;;;;;;11.80;84.40;;;;;;5058080;28;19920;-47
2023/10/16 11:06:39;;;;;;;;;;;11.90;83.60;;;;;;5096255;28;19908;-48
2023/10/16 11:09:18;;;;;;;;;;;11.90;82.60;;;;;;5112348;28;19908;-48
2023/10/16 11:11:47;;;;;;;;;;;12.10;82.30;;;;;;5113532;28;20300;-53
2023/10/16 11:14:15;;;;;;;;;;;12.50;83.00;;;;;;5103069;28;19916;-52
2023/10/16 11:16:45;;;;;;;;;;;12.50;81.30;;;;;;5113652;28;19907;-51
2023/10/16 11:19:11;;;;;;;;;;;12.50;81.10;;;;;;5095082;28;19908;-53
2023/10/16 11:21:48;;;;;;;;;;;12.60;81.80;;;;;;5108220;28;19915;-52
2023/10/16 11:24:15;;;;;;;;;;;12.70;81.20;;;;;;5108196;28;19912;-53
2023/10/16 11:26:45;;;;;;;;;;;12.70;80.00;;;;;;5112005;28;19961;-53
2023/10/16 11:29:12;;;;;;;;;;;12.60;79.00;;;;;;5109283;28;19908;-50
2023/10/16 11:31:41;;;;;;;;;;;12.40;78.60;;;;;;5103793;28;19912;-54
2023/10/16 11:34:21;;;;;;;;;;;12.10;79.20;;;;;;5101653;28;20047;-53
2023/10/16 11:36:51;;;;;;;;;;;11.90;77.20;;;;;;5097352;28;20253;-50
2023/10/16 11:39:20;;;;;;;;;;;11.80;78.00;;;;;;5108796;28;19961;-50
2023/10/16 11:41:48;;;;;;;;;;;11.70;77.90;;;;;;5112276;28;19965;-52
2023/10/16 11:44:16;;;;;;;;;;;11.80;77.10;;;;;;5109312;28;20002;-53
2023/10/16 11:46:52;;;;;;;;;;;11.90;76.60;;;;;;5106151;28;19938;-55
2023/10/16 11:49:35;;;;;;;;;;;12.00;77.60;;;;;;5099970;28;19907;-52
2023/10/16 11:52:27;;;;;;;;;;;12.10;78.60;;;;;;5093519;28;19912;-53
2023/10/16 11:54:56;;;;;;;;;;;12.10;77.40;;;;;;5095224;28;19953;-50
2023/10/16 11:57:27;;;;;;;;;;;12.10;74.80;;;;;;5111387;28;19912;-49
2023/10/16 11:59:55;;;;;;;;;;;12.10;75.60;;;;;;5111601;28;19908;-53
2023/10/16 12:02:29;;;;;;;;;;;12.10;75.50;;;;;;5111058;28;20344;-54
2023/10/16 12:05:05;;;;;;;;;;;12.20;76.60;;;;;;5110306;28;19912;-54
2023/10/16 12:07:33;;;;;;;;;;;12.40;76.90;;;;;;5102440;28;19907;-50
2023/10/16 12:10:05;;;;;;;;;;;12.30;74.70;;;;;;5111105;28;19990;-54
2023/10/16 12:12:35;;;;;;;;;;;12.20;76.20;;;;;;5108598;28;19915;-50
2023/10/16 12:15:12;;;;;;;;;;;12.10;75.80;;;;;;5110242;28;19907;-48
2023/10/16 12:17:38;;;;;;;;;;;12.00;75.30;;;;;;5109088;28;19916;-49
2023/10/16 12:20:10;;;;;;;;;;;12.00;75.50;;;;;;5110667;28;19919;-52
2023/10/16 12:22:43;;;;;;;;;;;12.00;76.90;;;;;;5109312;28;19907;-53
2023/10/16 12:25:11;;;;;;;;;;;12.00;77.00;;;;;;5103666;28;20265;-52
2023/10/16 12:27:37;;;;;;;;;;;12.10;77.70;;;;;;5105688;28;20379;-55
2023/10/16 12:30:13;;;;;;;;;;;12.00;77.60;;;;;;5105110;28;19939;-50
2023/10/16 12:32:41;;;;;;;;;;;11.90;76.30;;;;;;5110974;28;19907;-52
2023/10/16 12:35:13;;;;;;;;;;;11.80;76.60;;;;;;5091529;28;19918;-52
2023/10/16 12:37:40;;;;;;;;;;;11.70;75.00;;;;;;5104463;28;19999;-51
2023/10/16 12:40:27;;;;;;;;;;;11.60;74.00;;;;;;5107060;28;19950;-52
2023/10/16 12:42:58;;;;;;;;;;;11.70;73.20;;;;;;5105704;28;19912;-55
2023/10/16 12:45:24;;;;;;;;;;;11.70;73.80;;;;;;5093880;28;19966;-49
2023/10/16 12:47:51;;;;;;;;;;;11.70;75.40;;;;;;5097480;28;19916;-49
2023/10/16 12:50:27;;;;;;;;;;;11.70;75.00;;;;;;5093844;28;20027;-49
2023/10/16 12:52:57;;;;;;;;;;;11.70;76.40;;;;;;5111900;28;20014;-51
2023/10/16 12:55:24;;;;;;;;;;;11.80;75.40;;;;;;5110312;28;19920;-52
2023/10/16 12:57:51;;;;;;;;;;;11.80;75.20;;;;;;5107060;28;19919;-55
2023/10/16 13:00:18;;;;;;;;;;;11.80;75.00;;;;;;5111184;28;19922;-52
2023/10/16 13:02:45;;;;;;;;;;;11.90;75.40;;;;;;5094432;28;19998;-51
2023/10/16 13:05:30;;;;;;;;;;;11.90;75.60;;;;;;5106369;28;20217;-53
2023/10/16 13:08:01;;;;;;;;;;;12.00;74.50;;;;;;5108187;28;19938;-53
2023/10/16 13:10:30;;;;;;;;;;;11.90;73.80;;;;;;5109712;28;19907;-52
2023/10/16 13:13:00;;;;;;;;;;;11.90;74.30;;;;;;5098341;28;20002;-52
2023/10/16 13:15:31;;;;;;;;;;;12.00;75.30;;;;;;5099954;28;19919;-56
2023/10/16 13:18:00;;;;;;;;;;;12.00;74.20;;;;;;5105398;28;19939;-50
2023/10/16 13:20:32;;;;;;;;;;;11.90;76.70;;;;;;5094681;28;19959;-53
2023/10/16 13:23:00;;;;;;;;;;;11.80;79.10;;;;;;5112980;28;19914;-53
2023/10/16 13:25:31;;;;;;;;;;;11.80;79.40;;;;;;5107354;28;19914;-54
2023/10/16 13:27:58;;;;;;;;;;;11.60;79.60;;;;;;5115008;28;19923;-53
2023/10/16 13:30:26;;;;;;;;;;;11.50;79.90;;;;;;5087310;28;19923;-53
2023/10/16 13:32:54;;;;;;;;;;;11.60;80.90;;;;;;5113560;28;19919;-52
2023/10/16 13:35:20;;;;;;;;;;;11.60;80.90;;;;;;5101075;28;19912;-53
2023/10/16 13:37:47;;;;;;;;;;;11.60;81.30;;;;;;5081625;28;19916;-56
2023/10/16 13:40:28;;;;;;;;;;;11.60;81.10;;;;;;5097489;28;20371;-51
2023/10/16 13:43:02;;;;;;;;;;;11.50;80.50;;;;;;5107601;28;19911;-54
2023/10/16 13:45:29;;;;;;;;;;;11.60;80.20;;;;;;5095443;28;19915;-54
2023/10/16 13:47:58;;;;;;;;;;;11.60;79.80;;;;;;5095237;28;19908;-53
2023/10/16 13:50:24;;;;;;;;;;;11.70;78.90;;;;;;5105141;28;19916;-53
2023/10/16 13:52:52;;;;;;;;;;;11.80;79.20;;;;;;5112430;28;19927;-50
2023/10/16 13:55:30;;;;;;;;;;;11.90;79.20;;;;;;5115848;28;19964;-51
2023/10/16 13:58:05;;;;;;;;;;;11.90;77.30;;;;;;5115785;28;20335;-53
2023/10/16 14:00:35;;;;;;;;;;;12.00;76.50;;;;;;5102348;28;20002;-53
2023/10/16 14:03:21;;;;;;;;;;;12.20;77.80;;;;;;5104801;28;19931;-49
2023/10/16 14:05:48;;;;;;;;;;;12.20;78.70;;;;;;5114313;28;19934;-49
2023/10/16 14:08:14;;;;;;;;;;;12.10;78.80;;;;;;5095161;28;19904;-51
2023/10/16 14:11:02;;;;;;;;;;;12.20;77.80;;;;;;5077767;28;19908;-52
2023/10/16 14:13:31;;;;;;;;;;;12.30;76.70;;;;;;5100184;28;19919;-53
2023/10/16 14:16:17;;;;;;;;;;;12.40;77.20;;;;;;5106258;28;20325;-51
2023/10/16 14:18:45;;;;;;;;;;;12.50;76.40;;;;;;5095618;28;19915;-52
2023/10/16 14:21:23;;;;;;;;;;;12.50;76.00;;;;;;5099002;28;20340;-53
2023/10/16 14:23:51;;;;;;;;;;;12.40;73.40;;;;;;5110892;28;19912;-50
2023/10/16 14:26:24;;;;;;;;;;;12.30;74.30;;;;;;5098668;28;20063;-51
2023/10/16 14:28:54;;;;;;;;;;;12.20;73.70;;;;;;5115639;28;19953;-52
2023/10/16 14:31:24;;;;;;;;;;;12.20;73.60;;;;;;5112063;28;20351;-53
2023/10/16 14:33:53;;;;;;;;;;;12.10;74.50;;;;;;5094528;28;19923;-52
2023/10/16 14:36:19;;;;;;;;;;;12.10;75.20;;;;;;5094217;28;19908;-49
2023/10/16 14:38:46;;;;;;;;;;;12.00;75.70;;;;;;5096771;28;19911;-49
2023/10/16 14:41:17;;;;;;;;;;;11.90;74.70;;;;;;5115021;28;19912;-51
2023/10/16 14:43:50;;;;;;;;;;;11.90;74.20;;;;;;5114779;28;20241;-51
2023/10/16 14:46:25;;;;;;;;;;;11.90;74.90;;;;;;5100621;28;19961;-51
2023/10/16 14:48:53;;;;;;;;;;;11.80;74.20;;;;;;5097033;28;19949;-49
2023/10/16 14:51:22;;;;;;;;;;;11.90;74.50;;;;;;5114990;28;19973;-52
2023/10/16 14:53:49;;;;;;;;;;;11.90;75.10;;;;;;5103082;28;19931;-52
2023/10/16 14:56:19;;;;;;;;;;;11.90;74.10;;;;;;5108508;28;19907;-50
2023/10/16 14:58:47;;;;;;;;;;;11.90;74.50;;;;;;5092638;28;19923;-53
2023/10/16 15:01:15;;;;;;;;;;;11.90;74.30;;;;;;5076792;28;20333;-52
2023/10/16 15:03:56;;;;;;;;;;;11.90;75.10;;;;;;5114767;28;19956;-51
2023/10/16 15:06:22;;;;;;;;;;;11.90;75.50;;;;;;5114344;28;19907;-50
2023/10/16 15:08:53;;;;;;;;;;;11.80;74.60;;;;;;5107552;28;19908;-53
2023/10/16 15:11:20;;;;;;;;;;;11.80;74.80;;;;;;5102571;28;19946;-49
2023/10/16 15:13:47;;;;;;;;;;;11.80;75.20;;;;;;5114545;28;20746;-49
2023/10/16 15:16:13;;;;;;;;;;;11.80;75.60;;;;;;5108713;28;19911;-50
2023/10/16 15:18:40;;;;;;;;;;;11.70;75.70;;;;;;5076500;28;20601;-50
2023/10/16 15:21:08;;;;;;;;;;;11.70;75.90;;;;;;5094095;28;19991;-50
2023/10/16 15:23:36;;;;;;;;;;;11.70;76.90;;;;;;5096815;28;19908;-52
2023/10/16 15:26:05;;;;;;;;;;;11.60;76.60;;;;;;5095925;28;19938;-50
2023/10/16 15:28:31;;;;;;;;;;;11.50;77.50;;;;;;5114264;28;20446;-49
2023/10/16 15:30:59;;;;;;;;;;;11.50;77.30;;;;;;5114237;28;19908;-52
2023/10/16 15:33:26;;;;;;;;;;;11.40;77.20;;;;;;5102196;28;19912;-50
2023/10/16 15:35:55;;;;;;;;;;;11.40;77.50;;;;;;5093992;28;19994;-50
2023/10/16 15:38:23;;;;;;;;;;;11.30;78.40;;;;;;5094081;28;19999;-52
2023/10/16 15:41:00;;;;;;;;;;;11.30;78.90;;;;;;5090928;28;19919;-48
2023/10/16 15:43:27;;;;;;;;;;;11.20;79.40;;;;;;5094034;28;19914;-49
2023/10/16 15:45:54;;;;;;;;;;;11.20;79.90;;;;;;5093159;28;19919;-49
2023/10/16 15:48:23;;;;;;;;;;;11.10;80.60;;;;;;5093492;28;19904;-49
2023/10/16 15:50:50;;;;;;;;;;;11.00;81.20;;;;;;5108959;28;20351;-54
2023/10/16 15:53:20;;;;;;;;;;;11.00;82.10;;;;;;5092569;28;20408;-51
2023/10/16 15:55:48;;;;;;;;;;;10.90;82.70;;;;;;5081670;28;19912;-52
2023/10/16 15:58:15;;;;;;;;;;;10.90;83.10;;;;;;5093402;28;19918;-51
2023/10/16 16:00:44;;;;;;;;;;;10.80;83.70;;;;;;5093339;28;19904;-48
2023/10/16 16:03:14;;;;;;;;;;;10.70;84.30;;;;;;5073882;28;19947;-53
2023/10/16 16:05:41;;;;;;;;;;;10.60;84.30;;;;;;5073099;28;19970;-51
2023/10/16 16:08:09;;;;;;;;;;;10.60;84.50;;;;;;5073329;28;19999;-55
2023/10/16 16:10:39;;;;;;;;;;;10.50;84.80;;;;;;5075113;28;19991;-52
2023/10/16 16:13:05;;;;;;;;;;;10.40;84.60;;;;;;5055162;28;19912;-49
2023/10/16 16:15:31;;;;;;;;;;;10.40;84.90;;;;;;5072922;28;19904;-49
2023/10/16 16:18:01;;;;;;;;;;;10.40;85.20;;;;;;5072977;28;19908;-51
2023/10/16 16:20:28;;;;;;;;;;;10.30;86.00;;;;;;5082937;28;19962;-49
2023/10/16 16:22:56;;;;;;;;;;;10.30;86.30;;;;;;5093286;28;20034;-53
2023/10/16 16:25:26;;;;;;;;;;;10.20;86.30;;;;;;5073627;28;19912;-53
2023/10/16 16:27:53;;;;;;;;;;;10.20;86.30;;;;;;5072967;28;19927;-52
2023/10/16 16:30:20;;;;;;;;;;;10.00;86.30;;;;;;5080444;28;19915;-51
2023/10/16 16:32:47;;;;;;;;;;;9.90;86.60;;;;;;5085982;28;19908;-53